createdAt,value
2022-10-18T00:00:23.792Z,1.73
2022-10-18T00:01:26.078Z,2.60
2022-10-18T00:02:28.419Z,3.30
2022-10-18T00:03:31.316Z,3.35
2022-10-18T00:04:33.765Z,2.28
2022-10-18T00:05:36.321Z,5.35
2022-10-18T00:06:42.581Z,4.70
2022-10-18T00:07:45.886Z,5.63
2022-10-18T00:08:48.193Z,4.32
2022-10-18T00:09:50.522Z,3.35
2022-10-18T00:10:53.141Z,2.75
2022-10-18T00:11:56.083Z,3.92
2022-10-18T00:12:58.342Z,3.20
2022-10-18T00:14:00.825Z,5.10
2022-10-18T00:15:05.226Z,3.03
2022-10-18T00:16:12.881Z,8.25
2022-10-18T00:17:15.322Z,2.38
2022-10-18T00:18:17.890Z,3.83
2022-10-18T00:19:20.139Z,3.17
2022-10-18T00:20:22.464Z,1.95
2022-10-18T00:21:26.012Z,4.50
2022-10-18T00:22:28.493Z,2.15
2022-10-18T00:23:32.340Z,2.15
2022-10-18T00:24:34.569Z,5.55
2022-10-18T00:25:36.840Z,2.58
2022-10-18T00:26:39.122Z,4.00
2022-10-18T00:27:41.430Z,7.03
2022-10-18T00:28:44.535Z,2.72
2022-10-18T00:29:46.897Z,2.53
2022-10-18T00:31:52.364Z,3.85
2022-10-18T00:32:54.617Z,4.70
2022-10-18T00:34:00.453Z,3.13
2022-10-18T00:35:02.814Z,4.80
2022-10-18T00:36:05.415Z,5.78
2022-10-18T00:37:07.712Z,4.57
2022-10-18T00:38:09.949Z,2.50
2022-10-18T00:39:17.062Z,5.85
2022-10-18T00:40:19.379Z,4.03
2022-10-18T00:41:26.007Z,2.53
2022-10-18T00:42:32.496Z,2.05
2022-10-18T00:43:59.177Z,2.40
2022-10-18T00:45:03.988Z,1.67
2022-10-18T00:46:06.223Z,4.93
2022-10-18T00:47:12.741Z,2.42
2022-10-18T00:48:17.926Z,3.85
2022-10-18T00:49:32.437Z,3.03
2022-10-18T00:50:35.325Z,2.30
2022-10-18T00:51:46.448Z,4.45
2022-10-18T00:52:55.355Z,2.92
2022-10-18T00:53:57.902Z,4.18
2022-10-18T00:55:00.956Z,2.88
2022-10-18T00:56:03.339Z,4.05
2022-10-18T00:57:06.744Z,5.53
2022-10-18T00:58:11.328Z,2.92
2022-10-18T00:59:16.686Z,3.33
2022-10-18T01:00:19.286Z,3.55
2022-10-18T01:01:24.480Z,4.47
2022-10-18T01:02:30.183Z,2.70
2022-10-18T01:03:32.838Z,4.32
2022-10-18T01:04:35.442Z,4.57
2022-10-18T01:05:43.686Z,2.55
2022-10-18T01:07:07.251Z,3.50
2022-10-18T01:08:30.430Z,3.70
2022-10-18T01:09:41.805Z,1.60
2022-10-18T01:12:14.367Z,4.40
2022-10-18T01:13:36.721Z,2.45
2022-10-18T01:14:59.619Z,3.28
2022-10-18T01:16:08.373Z,4.38
2022-10-18T01:17:26.704Z,4.05
2022-10-18T01:18:38.386Z,3.55
2022-10-18T01:20:01.595Z,2.13
2022-10-18T01:21:09.676Z,3.33
2022-10-18T01:22:26.053Z,3.78
2022-10-18T01:23:45.164Z,3.97
2022-10-18T01:24:56.056Z,4.35
2022-10-18T01:26:22.256Z,2.35
2022-10-18T01:27:43.598Z,3.33
2022-10-18T01:28:57.178Z,3.25
2022-10-18T01:30:35.582Z,1.92
2022-10-18T01:32:04.821Z,4.05
2022-10-18T01:33:26.810Z,2.25
2022-10-18T01:34:33.772Z,5.43
2022-10-18T01:35:42.682Z,1.90
2022-10-18T01:36:49.545Z,3.72
2022-10-18T01:37:54.055Z,10.63
2022-10-18T01:38:59.887Z,3.33
2022-10-18T01:40:06.616Z,2.60
2022-10-18T01:41:14.746Z,4.63
2022-10-18T01:42:20.809Z,4.28
2022-10-18T01:43:24.352Z,2.97
2022-10-18T01:44:29.524Z,3.30
2022-10-18T01:45:32.553Z,2.90
2022-10-18T01:46:36.260Z,2.47
2022-10-18T01:47:40.261Z,2.58
2022-10-18T01:48:42.707Z,2.83
2022-10-18T01:49:45.193Z,11.98
2022-10-18T01:50:47.920Z,3.03
2022-10-18T01:51:50.157Z,13.93
2022-10-18T01:52:52.520Z,5.47
2022-10-18T01:53:55.421Z,4.10
2022-10-18T01:54:59.634Z,4.80
2022-10-18T01:56:34.505Z,2.47
2022-10-18T01:58:04.343Z,13.23
2022-10-18T01:59:30.479Z,15.23
2022-10-18T02:00:40.842Z,10.50
2022-10-18T02:02:12.655Z,8.35
2022-10-18T02:03:20.002Z,6.28
2022-10-18T02:04:59.674Z,9.63
2022-10-18T02:06:13.431Z,4.90
2022-10-18T02:07:23.362Z,3.58
2022-10-18T02:08:47.266Z,7.90
2022-10-18T02:10:01.056Z,2.92
2022-10-18T02:11:09.999Z,4.72
2022-10-18T02:12:15.491Z,4.97
2022-10-18T02:13:20.638Z,3.45
2022-10-18T02:14:25.590Z,6.88
2022-10-18T02:15:35.775Z,3.90
2022-10-18T02:16:58.592Z,6.97
2022-10-18T02:18:05.448Z,5.50
2022-10-18T02:19:32.351Z,3.35
2022-10-18T02:20:36.472Z,4.53
2022-10-18T02:21:41.962Z,4.68
2022-10-18T02:22:45.991Z,7.90
2022-10-18T02:23:49.387Z,6.32
2022-10-18T02:24:56.079Z,4.00
2022-10-18T02:25:58.436Z,9.45
2022-10-18T02:27:01.291Z,49.22
2022-10-18T02:28:05.468Z,89.50
2022-10-18T02:29:08.394Z,162.40
2022-10-18T02:30:11.729Z,82.53
2022-10-18T02:31:27.072Z,44.58
2022-10-18T02:32:34.077Z,29.95
2022-10-18T02:33:57.262Z,69.72
2022-10-18T02:35:01.720Z,66.63
2022-10-18T02:36:12.387Z,83.45
2022-10-18T02:37:15.334Z,33.42
2022-10-18T02:38:19.563Z,23.05
2022-10-18T02:39:30.805Z,19.15
2022-10-18T02:41:35.450Z,12.82
2022-10-18T02:42:41.248Z,10.45
2022-10-18T02:43:43.546Z,20.02
2022-10-18T02:44:45.777Z,67.45
2022-10-18T02:45:48.058Z,70.78
2022-10-18T02:46:50.515Z,108.70
2022-10-18T02:47:53.399Z,65.25
2022-10-18T02:48:55.629Z,40.75
2022-10-18T02:49:58.017Z,31.02
2022-10-18T02:51:00.273Z,22.63
2022-10-18T02:52:02.693Z,24.20
2022-10-18T02:53:04.988Z,14.88
2022-10-18T02:54:08.367Z,14.93
2022-10-18T02:55:11.017Z,13.95
2022-10-18T02:56:13.551Z,15.85
2022-10-18T02:57:15.768Z,16.98
2022-10-18T02:58:18.094Z,12.57
2022-10-18T02:59:20.577Z,19.23
2022-10-18T03:00:22.830Z,11.27
2022-10-18T03:01:25.155Z,8.45
2022-10-18T03:02:27.896Z,12.15
2022-10-18T03:03:30.197Z,8.63
2022-10-18T03:04:32.534Z,17.83
2022-10-18T03:05:34.842Z,8.07
2022-10-18T03:06:37.136Z,9.32
2022-10-18T03:07:39.356Z,10.45
2022-10-18T03:08:41.624Z,9.00
2022-10-18T03:09:43.898Z,7.97
2022-10-18T03:10:46.690Z,8.98
2022-10-18T03:11:48.944Z,6.93
2022-10-18T03:12:51.198Z,9.23
2022-10-18T03:13:53.409Z,6.97
2022-10-18T03:14:55.782Z,8.00
2022-10-18T03:15:58.027Z,6.80
2022-10-18T03:17:00.394Z,7.85
2022-10-18T03:18:02.756Z,7.45
2022-10-18T03:19:05.121Z,6.95
2022-10-18T03:20:07.891Z,8.63
2022-10-18T03:21:10.649Z,10.13
2022-10-18T03:22:12.903Z,14.43
2022-10-18T03:23:15.195Z,10.15
2022-10-18T03:24:17.656Z,30.20
2022-10-18T03:25:19.937Z,80.10
2022-10-18T03:26:22.395Z,42.03
2022-10-18T03:27:24.734Z,18.83
2022-10-18T03:28:27.135Z,17.02
2022-10-18T03:29:29.491Z,48.65
2022-10-18T03:30:31.747Z,96.82
2022-10-18T03:31:34.038Z,80.13
2022-10-18T03:32:36.307Z,52.88
2022-10-18T03:33:38.645Z,32.33
2022-10-18T03:34:40.922Z,21.25
2022-10-18T03:35:43.145Z,17.00
2022-10-18T03:36:45.392Z,15.27
2022-10-18T03:37:47.652Z,14.50
2022-10-18T03:38:49.934Z,11.77
2022-10-18T03:39:52.217Z,12.35
2022-10-18T03:40:54.519Z,11.80
2022-10-18T03:41:56.831Z,15.63
2022-10-18T03:42:59.157Z,14.18
2022-10-18T03:44:01.432Z,9.25
2022-10-18T03:45:04.372Z,11.50
2022-10-18T03:46:06.792Z,11.25
2022-10-18T03:47:09.059Z,8.63
2022-10-18T03:48:11.529Z,8.07
2022-10-18T03:49:13.903Z,12.95
2022-10-18T03:50:16.215Z,8.80
2022-10-18T03:51:18.560Z,8.02
2022-10-18T03:52:20.857Z,6.40
2022-10-18T03:53:23.185Z,9.20
2022-10-18T03:54:25.528Z,10.23
2022-10-18T03:55:27.892Z,11.05
2022-10-18T03:56:30.164Z,11.68
2022-10-18T03:57:32.526Z,9.25
2022-10-18T03:59:42.001Z,6.93
2022-10-18T04:00:44.278Z,9.75
2022-10-18T04:01:46.614Z,5.38
2022-10-18T04:02:52.121Z,6.05
2022-10-18T04:03:57.359Z,12.60
2022-10-18T04:04:59.785Z,103.75
2022-10-18T04:06:03.524Z,176.25
2022-10-18T04:07:06.018Z,254.25
2022-10-18T04:08:08.334Z,174.07
2022-10-18T04:09:10.821Z,153.30
2022-10-18T04:10:13.127Z,163.68
2022-10-18T04:11:15.503Z,109.72
2022-10-18T04:12:17.781Z,150.13
2022-10-18T04:13:20.054Z,92.78
2022-10-18T04:14:22.451Z,59.78
2022-10-18T04:15:24.753Z,48.53
2022-10-18T04:16:27.088Z,34.67
2022-10-18T04:17:29.696Z,38.72
2022-10-18T04:18:32.166Z,28.42
2022-10-18T04:19:34.469Z,29.05
2022-10-18T04:20:36.990Z,23.13
2022-10-18T04:21:39.386Z,24.42
2022-10-18T04:22:41.731Z,17.80
2022-10-18T04:23:44.029Z,23.13
2022-10-18T04:24:46.319Z,19.63
2022-10-18T04:25:48.646Z,19.40
2022-10-18T04:26:51.069Z,19.70
2022-10-18T04:27:53.341Z,16.27
2022-10-18T04:28:55.705Z,12.00
2022-10-18T04:30:01.091Z,13.23
2022-10-18T04:31:03.380Z,12.43
2022-10-18T04:32:05.726Z,15.55
2022-10-18T04:33:07.988Z,14.73
2022-10-18T04:34:10.916Z,11.90
2022-10-18T04:35:13.169Z,17.83
2022-10-18T04:36:15.409Z,14.57
2022-10-18T04:37:17.731Z,14.98
2022-10-18T04:38:20.600Z,11.18
2022-10-18T04:39:23.059Z,13.52
2022-10-18T04:40:25.358Z,10.43
2022-10-18T04:41:27.653Z,10.82
2022-10-18T04:42:29.933Z,13.50
2022-10-18T04:43:32.325Z,15.70
2022-10-18T04:44:34.670Z,14.40
2022-10-18T04:45:37.037Z,22.30
2022-10-18T04:46:39.288Z,11.88
2022-10-18T04:47:41.572Z,12.38
2022-10-18T04:48:43.867Z,12.25
2022-10-18T04:49:46.173Z,23.02
2022-10-18T04:50:49.737Z,16.00
2022-10-18T04:51:52.042Z,10.23
2022-10-18T04:52:54.311Z,12.75
2022-10-18T04:53:56.962Z,10.45
2022-10-18T04:54:59.220Z,8.57
2022-10-18T04:56:03.631Z,12.80
2022-10-18T04:57:06.048Z,9.38
2022-10-18T04:58:08.312Z,9.65
2022-10-18T04:59:10.650Z,7.55
2022-10-18T05:00:13.372Z,8.10
2022-10-18T05:01:17.059Z,10.70
2022-10-18T05:02:19.365Z,11.93
2022-10-18T05:03:21.705Z,16.50
2022-10-18T05:04:23.994Z,11.63
2022-10-18T05:05:43.326Z,15.23
2022-10-18T05:06:48.621Z,7.10
2022-10-18T05:07:50.875Z,8.95
2022-10-18T05:08:53.120Z,98.40
2022-10-18T05:09:55.433Z,89.38
2022-10-18T05:10:57.748Z,42.22
2022-10-18T05:12:00.118Z,37.80
2022-10-18T05:13:02.441Z,22.38
2022-10-18T05:14:04.842Z,18.48
2022-10-18T05:15:07.453Z,22.42
2022-10-18T05:16:09.740Z,15.40
2022-10-18T05:17:11.990Z,19.25
2022-10-18T05:18:14.368Z,17.05
2022-10-18T05:19:16.747Z,22.63
2022-10-18T05:20:19.057Z,18.63
2022-10-18T05:21:21.307Z,17.65
2022-10-18T05:22:23.528Z,19.73
2022-10-18T05:23:25.925Z,18.38
2022-10-18T05:24:28.442Z,19.40
2022-10-18T05:25:30.697Z,19.73
2022-10-18T05:26:33.107Z,16.33
2022-10-18T05:27:35.454Z,18.27
2022-10-18T05:28:40.455Z,19.13
2022-10-18T05:29:43.632Z,14.18
2022-10-18T05:30:45.889Z,18.42
2022-10-18T05:31:48.903Z,19.45
2022-10-18T05:32:51.175Z,17.73
2022-10-18T05:33:53.467Z,18.83
2022-10-18T05:34:55.859Z,19.52
2022-10-18T05:35:58.594Z,19.15
2022-10-18T05:37:01.391Z,18.83
2022-10-18T05:38:06.967Z,19.05
2022-10-18T05:39:09.336Z,20.08
2022-10-18T05:40:12.030Z,15.55
2022-10-18T05:41:14.408Z,15.18
2022-10-18T05:42:17.491Z,19.35
2022-10-18T05:43:19.884Z,19.27
2022-10-18T05:44:22.341Z,18.83
2022-10-18T05:45:24.676Z,23.35
2022-10-18T05:46:26.976Z,50.78
2022-10-18T05:47:29.514Z,83.75
2022-10-18T05:48:31.910Z,38.03
2022-10-18T05:49:34.234Z,19.02
2022-10-18T05:50:39.543Z,20.40
2022-10-18T05:51:42.807Z,19.30
2022-10-18T05:52:45.070Z,22.00
2022-10-18T05:53:47.341Z,16.67
2022-10-18T05:54:49.648Z,14.40
2022-10-18T05:55:52.013Z,14.68
2022-10-18T05:56:54.311Z,19.13
2022-10-18T05:57:56.766Z,14.75
2022-10-18T05:58:59.111Z,19.55
2022-10-18T06:00:01.514Z,13.07
2022-10-18T06:01:14.094Z,17.08
2022-10-18T06:02:16.466Z,15.75
2022-10-18T06:03:18.766Z,15.02
2022-10-18T06:04:21.356Z,45.40
2022-10-18T06:05:23.694Z,17.60
2022-10-18T06:06:25.971Z,13.30
2022-10-18T06:07:28.252Z,15.13
2022-10-18T06:08:30.760Z,15.15
2022-10-18T06:09:33.002Z,19.40
2022-10-18T06:10:35.493Z,18.40
2022-10-18T06:11:37.766Z,18.25
2022-10-18T06:12:40.023Z,17.58
2022-10-18T06:13:47.026Z,19.88
2022-10-18T06:14:49.447Z,16.40
2022-10-18T06:15:56.280Z,19.33
2022-10-18T06:16:58.529Z,16.67
2022-10-18T06:18:00.981Z,19.42
2022-10-18T06:19:03.276Z,15.00
2022-10-18T06:20:07.266Z,11.10
2022-10-18T06:21:10.202Z,11.48
2022-10-18T06:22:12.778Z,9.88
2022-10-18T06:23:15.119Z,13.35
2022-10-18T06:24:18.458Z,12.25
2022-10-18T06:25:20.721Z,17.83
2022-10-18T06:26:23.289Z,10.80
2022-10-18T06:27:25.571Z,13.00
2022-10-18T06:28:28.783Z,9.15
2022-10-18T06:29:31.091Z,15.43
2022-10-18T06:30:34.194Z,81.07
2022-10-18T06:31:36.454Z,43.70
2022-10-18T06:32:38.731Z,35.83
2022-10-18T06:33:41.036Z,30.85
2022-10-18T06:34:43.296Z,29.55
2022-10-18T06:35:58.654Z,24.02
2022-10-18T06:37:01.251Z,21.20
2022-10-18T06:38:03.798Z,25.38
2022-10-18T06:39:06.069Z,22.85
2022-10-18T06:40:08.957Z,17.13
2022-10-18T06:41:11.601Z,16.80
2022-10-18T06:42:14.803Z,17.40
2022-10-18T06:43:21.497Z,16.27
2022-10-18T06:44:24.028Z,19.38
2022-10-18T06:45:26.266Z,15.93
2022-10-18T06:46:28.616Z,22.23
2022-10-18T06:47:30.902Z,21.25
2022-10-18T06:48:34.897Z,17.52
2022-10-18T06:49:37.154Z,14.13
2022-10-18T06:50:39.488Z,18.45
2022-10-18T06:51:43.245Z,18.48
2022-10-18T06:52:45.550Z,18.60
2022-10-18T06:54:05.913Z,15.68
2022-10-18T06:55:10.305Z,20.35
2022-10-18T06:56:13.662Z,15.07
2022-10-18T06:57:15.941Z,17.17
2022-10-18T06:58:18.417Z,17.35
2022-10-18T06:59:20.843Z,16.50
2022-10-18T07:00:23.276Z,18.45
2022-10-18T07:01:25.781Z,17.15
2022-10-18T07:02:28.092Z,17.55
2022-10-18T07:03:30.440Z,13.77
2022-10-18T07:04:32.837Z,16.10
2022-10-18T07:05:35.083Z,21.58
2022-10-18T07:06:37.377Z,15.05
2022-10-18T07:07:39.666Z,16.65
2022-10-18T07:08:42.525Z,16.42
2022-10-18T07:09:45.989Z,18.45
2022-10-18T07:10:53.147Z,14.10
2022-10-18T07:11:55.465Z,17.02
2022-10-18T07:13:13.633Z,9.85
2022-10-18T07:14:20.060Z,16.00
2022-10-18T07:15:24.007Z,10.05
2022-10-18T07:16:26.499Z,7.60
2022-10-18T07:17:28.860Z,7.45
2022-10-18T07:18:33.086Z,11.90
2022-10-18T07:19:35.311Z,8.05
2022-10-18T07:20:37.570Z,10.57
2022-10-18T07:21:39.809Z,9.48
2022-10-18T07:22:42.208Z,9.88
2022-10-18T07:23:48.418Z,6.85
2022-10-18T07:24:50.915Z,8.15
2022-10-18T07:25:53.220Z,7.43
2022-10-18T07:26:55.438Z,11.25
2022-10-18T07:27:57.679Z,6.00
2022-10-18T07:29:04.912Z,13.15
2022-10-18T07:30:09.368Z,6.75
2022-10-18T07:31:12.191Z,9.63
2022-10-18T07:32:14.465Z,6.10
2022-10-18T07:33:16.706Z,9.65
2022-10-18T07:34:18.951Z,7.97
2022-10-18T07:35:21.191Z,11.23
2022-10-18T07:36:24.443Z,9.80
2022-10-18T07:37:29.396Z,14.35
2022-10-18T07:38:33.166Z,8.50
2022-10-18T07:39:35.416Z,8.43
2022-10-18T07:40:37.686Z,9.90
2022-10-18T07:41:40.016Z,7.18
2022-10-18T07:42:42.328Z,11.68
2022-10-18T07:43:46.914Z,5.47
2022-10-18T07:44:49.197Z,9.15
2022-10-18T07:45:53.019Z,10.68
2022-10-18T07:46:55.609Z,10.38
2022-10-18T07:47:58.100Z,5.57
2022-10-18T07:49:00.448Z,9.52
2022-10-18T07:50:02.744Z,16.80
2022-10-18T07:51:05.501Z,6.88
2022-10-18T07:52:07.821Z,8.15
2022-10-18T07:53:10.045Z,6.78
2022-10-18T07:54:12.331Z,5.82
2022-10-18T07:55:14.777Z,8.88
2022-10-18T07:56:20.757Z,6.72
2022-10-18T07:57:23.379Z,7.45
2022-10-18T07:58:25.738Z,7.43
2022-10-18T07:59:28.019Z,8.13
2022-10-18T08:00:30.302Z,9.88
2022-10-18T08:01:32.606Z,7.07
2022-10-18T08:02:35.328Z,5.63
2022-10-18T08:03:38.688Z,5.15
2022-10-18T08:04:41.510Z,4.45
2022-10-18T08:05:43.782Z,3.13
2022-10-18T08:06:46.195Z,8.70
2022-10-18T08:07:48.439Z,6.75
2022-10-18T08:08:52.259Z,6.63
2022-10-18T08:09:54.521Z,7.30
2022-10-18T08:11:05.861Z,4.00
2022-10-18T08:13:10.215Z,6.40
2022-10-18T08:14:12.484Z,9.13
2022-10-18T08:15:14.848Z,4.88
2022-10-18T08:16:21.494Z,6.85
2022-10-18T08:17:23.864Z,6.93
2022-10-18T08:18:26.115Z,6.85
2022-10-18T08:19:28.323Z,5.03
2022-10-18T08:20:31.974Z,5.97
2022-10-18T08:21:34.322Z,6.45
2022-10-18T08:22:36.834Z,6.40
2022-10-18T08:23:39.650Z,6.63
2022-10-18T08:24:41.987Z,12.60
2022-10-18T08:25:44.277Z,4.38
2022-10-18T08:26:46.541Z,5.28
2022-10-18T08:27:48.807Z,9.60
2022-10-18T08:28:54.334Z,8.93
2022-10-18T08:30:12.023Z,4.70
2022-10-18T08:31:20.080Z,8.25
2022-10-18T08:32:22.353Z,3.55
2022-10-18T08:33:24.614Z,8.88
2022-10-18T08:34:26.920Z,3.80
2022-10-18T08:35:29.282Z,4.05
2022-10-18T08:36:31.576Z,3.70
2022-10-18T08:37:34.878Z,6.60
2022-10-18T08:38:38.988Z,6.40
2022-10-18T08:39:41.256Z,3.60
2022-10-18T08:40:44.381Z,8.07
2022-10-18T08:42:11.897Z,5.32
2022-10-18T08:43:28.956Z,13.85
2022-10-18T08:44:32.899Z,7.63
2022-10-18T08:45:42.327Z,5.60
2022-10-18T08:46:51.704Z,14.27
2022-10-18T08:47:57.590Z,7.75
2022-10-18T08:49:01.900Z,4.75
2022-10-18T08:50:07.910Z,5.70
2022-10-18T08:51:34.147Z,5.75
2022-10-18T08:52:45.003Z,4.15
2022-10-18T08:53:56.800Z,2.47
2022-10-18T08:55:10.119Z,4.45
2022-10-18T08:56:16.171Z,6.28
2022-10-18T08:57:19.726Z,5.82
2022-10-18T08:58:24.634Z,3.20
2022-10-18T08:59:38.964Z,3.20
2022-10-18T09:00:49.931Z,2.70
2022-10-18T09:02:00.836Z,7.32
2022-10-18T09:03:40.156Z,2.90
2022-10-18T09:05:13.325Z,10.88
2022-10-18T09:06:34.943Z,5.28
2022-10-18T09:07:59.200Z,5.60
2022-10-18T09:09:19.697Z,10.68
2022-10-18T09:10:43.597Z,4.55
2022-10-18T09:12:07.501Z,9.32
2022-10-18T09:13:37.443Z,4.57
2022-10-18T09:15:08.680Z,7.32
2022-10-18T09:16:21.721Z,4.03
2022-10-18T09:17:54.335Z,4.57
2022-10-18T09:19:07.852Z,9.35
2022-10-18T09:20:24.082Z,4.20
2022-10-18T09:21:35.235Z,10.35
2022-10-18T09:22:43.527Z,5.05
2022-10-18T09:23:54.875Z,5.65
2022-10-18T09:26:15.737Z,6.80
2022-10-18T09:27:19.518Z,4.97
2022-10-18T09:28:38.690Z,4.60
2022-10-18T09:29:49.744Z,9.02
2022-10-18T09:30:59.573Z,4.97
2022-10-18T09:32:04.766Z,9.75
2022-10-18T09:33:26.688Z,4.07
2022-10-18T09:34:46.104Z,5.40
2022-10-18T09:35:56.842Z,5.00
2022-10-18T09:36:59.892Z,12.18
2022-10-18T09:38:11.173Z,8.77
2022-10-18T09:39:16.555Z,4.15
2022-10-18T09:40:24.206Z,9.70
2022-10-18T09:41:32.392Z,6.47
2022-10-18T09:42:42.032Z,8.45
2022-10-18T09:44:02.214Z,7.35
2022-10-18T09:45:18.054Z,39.47
2022-10-18T09:46:25.172Z,45.03
2022-10-18T09:47:38.472Z,30.13
2022-10-18T09:48:49.167Z,21.40
2022-10-18T09:49:57.165Z,21.15
2022-10-18T09:51:17.587Z,27.13
2022-10-18T09:52:34.619Z,13.35
2022-10-18T09:53:47.547Z,13.40
2022-10-18T09:55:00.554Z,14.20
2022-10-18T09:56:06.982Z,10.27
2022-10-18T09:57:11.088Z,11.95
2022-10-18T09:58:14.123Z,9.07
2022-10-18T09:59:41.856Z,6.45
2022-10-18T10:00:50.670Z,6.18
2022-10-18T10:01:53.013Z,9.35
2022-10-18T10:02:55.349Z,12.38
2022-10-18T10:03:58.064Z,8.80
2022-10-18T10:05:00.444Z,8.30
2022-10-18T10:06:15.094Z,6.13
2022-10-18T10:07:29.858Z,9.15
2022-10-18T10:08:35.287Z,9.68
2022-10-18T10:09:58.379Z,11.68
2022-10-18T10:11:01.149Z,7.07
2022-10-18T10:12:03.686Z,5.00
2022-10-18T10:13:24.254Z,5.32
2022-10-18T10:14:30.136Z,5.57
2022-10-18T10:15:37.104Z,6.07
2022-10-18T10:16:49.888Z,9.07
2022-10-18T10:18:00.269Z,8.35
2022-10-18T10:19:02.786Z,6.00
2022-10-18T10:20:20.189Z,5.20
2022-10-18T10:21:23.338Z,9.07
2022-10-18T10:22:36.775Z,5.68
2022-10-18T10:23:55.539Z,7.07
2022-10-18T10:24:57.805Z,4.80
2022-10-18T10:26:03.696Z,18.63
2022-10-18T10:27:13.968Z,50.25
2022-10-18T10:28:20.254Z,52.55
2022-10-18T10:29:48.136Z,51.88
2022-10-18T10:30:50.834Z,69.13
2022-10-18T10:32:03.664Z,32.90
2022-10-18T10:33:07.020Z,32.13
2022-10-18T10:34:14.913Z,12.73
2022-10-18T10:35:41.534Z,11.40
2022-10-18T10:36:50.013Z,6.00
2022-10-18T10:37:54.162Z,40.28
2022-10-18T10:39:18.990Z,34.42
2022-10-18T10:40:28.514Z,30.42
2022-10-18T10:42:38.954Z,17.38
2022-10-18T10:43:45.548Z,19.75
2022-10-18T10:44:55.260Z,14.70
2022-10-18T10:46:03.795Z,15.88
2022-10-18T10:47:06.350Z,7.18
2022-10-18T10:48:15.009Z,5.28
2022-10-18T10:49:40.697Z,6.47
2022-10-18T10:50:55.191Z,5.47
2022-10-18T10:52:08.864Z,5.88
2022-10-18T10:53:38.942Z,6.20
2022-10-18T10:54:50.277Z,6.53
2022-10-18T10:55:56.394Z,8.38
2022-10-18T10:57:01.463Z,6.70
2022-10-18T10:58:03.847Z,9.05
2022-10-18T10:59:15.546Z,8.98
2022-10-18T11:00:39.459Z,5.72
2022-10-18T11:01:42.043Z,6.05
2022-10-18T11:02:55.392Z,5.50
2022-10-18T11:04:38.365Z,5.00
2022-10-18T11:05:49.528Z,9.13
2022-10-18T11:07:26.004Z,6.43
2022-10-18T11:08:41.463Z,5.75
2022-10-18T11:10:11.811Z,8.02
2022-10-18T11:11:23.313Z,7.05
2022-10-18T11:12:28.856Z,7.07
2022-10-18T11:14:13.581Z,10.85
2022-10-18T11:15:43.220Z,5.85
2022-10-18T11:16:56.167Z,9.00
2022-10-18T11:18:17.204Z,4.00
2022-10-18T11:19:53.015Z,21.00
2022-10-18T11:21:02.137Z,28.95
2022-10-18T11:22:09.424Z,22.83
2022-10-18T11:23:14.088Z,9.93
2022-10-18T11:24:16.829Z,27.52
2022-10-18T11:25:21.718Z,10.38
2022-10-18T11:26:29.737Z,14.57
2022-10-18T11:27:49.282Z,32.58
2022-10-18T11:29:17.460Z,60.25
2022-10-18T11:30:25.633Z,29.90
2022-10-18T11:31:56.731Z,22.35
2022-10-18T11:33:06.619Z,13.40
2022-10-18T11:34:23.569Z,20.77
2022-10-18T11:35:53.652Z,18.95
2022-10-18T11:37:28.585Z,15.40
2022-10-18T11:39:06.238Z,13.65
2022-10-18T11:40:45.535Z,10.75
2022-10-18T11:41:55.472Z,11.00
2022-10-18T11:43:16.432Z,13.73
2022-10-18T11:44:45.345Z,7.32
2022-10-18T11:45:50.427Z,6.53
2022-10-18T11:47:11.367Z,8.63
2022-10-18T11:48:50.782Z,8.18
2022-10-18T11:50:02.245Z,6.05
2022-10-18T11:51:29.744Z,7.20
2022-10-18T11:53:16.840Z,7.93
2022-10-18T11:54:49.724Z,6.70
2022-10-18T11:56:22.400Z,3.30
2022-10-18T11:57:42.980Z,4.07
2022-10-18T11:59:00.564Z,4.53
2022-10-18T12:00:21.177Z,4.85
2022-10-18T12:01:47.796Z,6.83
2022-10-18T12:03:15.421Z,4.03
2022-10-18T12:04:27.879Z,8.30
2022-10-18T12:05:32.069Z,11.13
2022-10-18T12:06:38.720Z,4.57
2022-10-18T12:08:12.220Z,7.78
2022-10-18T12:09:26.071Z,5.95
2022-10-18T12:10:45.815Z,6.20
2022-10-18T12:12:06.230Z,3.45
2022-10-18T12:13:18.164Z,2.78
2022-10-18T12:14:33.307Z,7.38
2022-10-18T12:15:39.041Z,6.05
2022-10-18T12:17:20.368Z,7.20
2022-10-18T12:18:14.656Z,6.05
2022-10-18T12:19:29.326Z,6.05
2022-10-18T12:20:35.092Z,4.10
2022-10-18T12:21:38.368Z,6.00
2022-10-18T12:23:01.809Z,6.65
2022-10-18T12:24:12.515Z,7.45
2022-10-18T12:25:17.413Z,5.13
2022-10-18T12:26:20.638Z,5.25
2022-10-18T12:27:34.684Z,4.55
2022-10-18T12:29:05.707Z,6.15
2022-10-18T12:30:20.360Z,5.32
2022-10-18T12:31:33.847Z,5.30
2022-10-18T12:32:37.312Z,3.92
2022-10-18T12:33:43.960Z,6.00
2022-10-18T12:34:50.282Z,6.20
2022-10-18T12:36:14.231Z,4.90
2022-10-18T12:37:35.865Z,5.25
2022-10-18T12:38:42.421Z,2.53
2022-10-18T12:40:09.130Z,2.95
2022-10-18T12:41:39.042Z,2.95
2022-10-18T12:42:48.239Z,2.92
2022-10-18T12:43:56.991Z,3.83
2022-10-18T12:45:20.732Z,2.63
2022-10-18T12:46:23.267Z,2.08
2022-10-18T12:47:26.377Z,4.53
2022-10-18T12:48:39.016Z,4.22
2022-10-18T12:49:43.929Z,2.83
2022-10-18T12:51:04.263Z,3.55
2022-10-18T12:52:21.932Z,2.92
2022-10-18T12:53:28.460Z,2.35
2022-10-18T12:54:34.041Z,7.03
2022-10-18T12:55:38.911Z,5.55
2022-10-18T12:56:43.187Z,2.60
2022-10-18T12:57:54.410Z,2.60
2022-10-18T12:59:14.996Z,2.70
2022-10-18T13:00:32.280Z,5.35
2022-10-18T13:01:52.899Z,2.47
2022-10-18T13:03:10.627Z,3.87
2022-10-18T13:04:33.716Z,6.38
2022-10-18T13:05:53.296Z,3.10
2022-10-18T13:07:04.574Z,5.18
2022-10-18T13:08:31.712Z,2.58
2022-10-18T13:09:36.416Z,4.70
2022-10-18T13:10:38.804Z,6.07
2022-10-18T13:11:41.100Z,6.93
2022-10-18T13:13:29.577Z,3.80
2022-10-18T13:15:07.075Z,2.60
2022-10-18T13:16:33.934Z,2.38
2022-10-18T13:17:47.036Z,3.15
2022-10-18T13:19:00.402Z,4.50
2022-10-18T13:20:30.311Z,2.65
2022-10-18T13:21:41.379Z,2.63
2022-10-18T13:23:27.846Z,2.25
2022-10-18T13:24:44.585Z,3.33
2022-10-18T13:25:58.572Z,3.70
2022-10-18T13:27:46.364Z,4.07
2022-10-18T13:29:19.299Z,5.43
2022-10-18T13:30:39.578Z,4.28
2022-10-18T13:31:44.864Z,3.22
2022-10-18T13:33:02.160Z,8.27
2022-10-18T13:34:24.646Z,3.03
2022-10-18T13:35:52.203Z,3.25
2022-10-18T13:37:06.318Z,2.60
2022-10-18T13:38:39.944Z,4.28
2022-10-18T13:39:42.751Z,3.83
2022-10-18T13:40:45.131Z,3.20
2022-10-18T13:41:47.375Z,2.53
2022-10-18T13:42:49.767Z,2.85
2022-10-18T13:44:11.326Z,6.38
2022-10-18T13:46:33.932Z,5.28
2022-10-18T13:47:37.884Z,2.25
2022-10-18T13:48:40.204Z,16.17
2022-10-18T13:49:55.918Z,55.72
2022-10-18T13:51:26.187Z,21.05
2022-10-18T13:52:49.149Z,17.02
2022-10-18T13:54:09.887Z,14.40
2022-10-18T13:55:30.783Z,10.18
2022-10-18T13:56:33.139Z,21.70
2022-10-18T13:58:02.529Z,17.40
2022-10-18T13:59:45.902Z,13.93
2022-10-18T14:01:22.091Z,8.93
2022-10-18T14:02:56.949Z,8.40
2022-10-18T14:04:22.689Z,3.97
2022-10-18T14:05:56.783Z,5.97
2022-10-18T14:07:03.484Z,3.65
2022-10-18T14:08:17.299Z,2.47
2022-10-18T14:11:04.812Z,3.35
2022-10-18T14:12:35.170Z,3.25
2022-10-18T14:13:47.744Z,5.78
2022-10-18T14:15:18.063Z,4.05
2022-10-18T14:16:23.305Z,2.85
2022-10-18T14:17:35.494Z,2.90
2022-10-18T14:18:42.380Z,2.95
2022-10-18T14:20:07.296Z,3.50
2022-10-18T14:21:22.093Z,7.63
2022-10-18T14:22:36.471Z,3.60
2022-10-18T14:23:44.620Z,3.42
2022-10-18T14:24:51.515Z,2.50
2022-10-18T14:26:06.751Z,4.32
2022-10-18T14:27:17.056Z,64.78
2022-10-18T14:28:31.534Z,70.78
2022-10-18T14:29:39.781Z,29.20
2022-10-18T14:31:02.794Z,33.53
2022-10-18T14:32:10.198Z,22.35
2022-10-18T14:33:40.877Z,40.05
2022-10-18T14:34:44.106Z,23.77
2022-10-18T14:35:59.897Z,12.60
2022-10-18T14:37:02.288Z,7.47
2022-10-18T14:38:13.205Z,6.68
2022-10-18T14:39:26.505Z,5.90
2022-10-18T14:40:39.061Z,6.95
2022-10-18T14:41:50.250Z,6.18
2022-10-18T14:42:52.529Z,18.05
2022-10-18T14:44:14.918Z,4.47
2022-10-18T14:45:21.198Z,4.95
2022-10-18T14:46:28.987Z,6.53
2022-10-18T14:47:37.263Z,4.65
2022-10-18T14:48:39.591Z,4.68
2022-10-18T14:49:46.193Z,3.42
2022-10-18T14:50:59.145Z,7.90
2022-10-18T14:52:01.827Z,7.03
2022-10-18T14:53:06.799Z,6.22
2022-10-18T14:54:18.125Z,4.35
2022-10-18T14:56:38.568Z,3.13
2022-10-18T14:57:41.502Z,2.92
2022-10-18T14:58:43.782Z,4.30
2022-10-18T14:59:51.725Z,8.10
2022-10-18T15:00:54.637Z,8.50
2022-10-18T15:02:04.982Z,6.65
2022-10-18T15:03:13.444Z,3.78
2022-10-18T15:04:16.306Z,13.32
2022-10-18T15:05:24.495Z,15.35
2022-10-18T15:06:27.438Z,34.38
2022-10-18T15:07:30.111Z,33.97
2022-10-18T15:08:41.908Z,21.20
2022-10-18T15:09:45.277Z,22.20
2022-10-18T15:10:48.395Z,49.30
2022-10-18T15:11:51.627Z,20.20